WetterOnline ( https://www.wetteronline.de )

Wetter aktuell Bellavista

Aktuelles Wetter: Capo Bellavista (150m)

6-stündlich | Neueste Meldungen
Ortszeit Temperatur Wetter
Mi, 21.08. 14:00 32.0° C fast wolkenlos
Mi, 21.08. 8:00 24.0° C wolkenlos
Mi, 21.08. 2:00 24.6° C wolkenlos
Di, 20.08. 20:00 26.2° C wolkenlos
Di, 20.08. 14:00 32.0° C wolkenlos
Di, 20.08. 8:00 21.0° C wolkenlos
Di, 20.08. 2:00 23.2° C wolkenlos
Mo, 19.08. 20:00 28.0° C wolkenlos
Ortszeit Temperatur Wetter
Mi, 21.08. 19:00 28.0° C fast wolkenlos
Mi, 21.08. 18:55 28° C leicht bewölkt
Mi, 21.08. 18:00 30.0° C fast wolkenlos
Mi, 21.08. 17:55 30° C leicht bewölkt
Mi, 21.08. 17:00 30.8° C fast wolkenlos
Mi, 21.08. 16:55 31° C leicht bewölkt
Mi, 21.08. 16:00 31.2° C fast wolkenlos
Mi, 21.08. 15:55 31° C leicht bewölkt
Mi, 21.08. 15:00 31.4° C fast wolkenlos
Ortszeit Relative Feuchte Sichtweite
Mi, 21.08. 14:00 57% 20 km
Mi, 21.08. 8:00 84% 20 km
Mi, 21.08. 2:00 94% 20 km
Di, 20.08. 20:00 90% 20 km
Di, 20.08. 14:00 55% 20 km
Di, 20.08. 8:00 90% 30 km
Di, 20.08. 2:00 85% 20 km
Mo, 19.08. 20:00 65% 20 km
Ortszeit Relative Feuchte Sichtweite
Mi, 21.08. 19:00 81% 20 km
Mi, 21.08. 18:55 84% >10 km
Mi, 21.08. 18:00 70% 20 km
Mi, 21.08. 17:55 70% >10 km
Mi, 21.08. 17:00 68% 20 km
Mi, 21.08. 16:55 66% >10 km
Mi, 21.08. 16:00 60% 20 km
Mi, 21.08. 15:55 59% >10 km
Mi, 21.08. 15:00 63% 20 km
Ortszeit Niederschlagsmenge Niederschlagsart
Mi, 21.08. 14:00 0.0 l/m2 in 6 Std. -
Mi, 21.08. 8:00 0.0 l/m2 in 12 Std. -
Mi, 21.08. 2:00 0.0 l/m2 in 6 Std. -
Di, 20.08. 20:00 0.0 l/m2 in 12 Std. -
Di, 20.08. 14:00 0.0 l/m2 in 6 Std. -
Di, 20.08. 8:00 0.0 l/m2 in 12 Std. -
Di, 20.08. 2:00 0.0 l/m2 in 6 Std. -
Mo, 19.08. 20:00 0.0 l/m2 in 12 Std. -
Ortszeit Niederschlagsmenge Niederschlagsart
Mi, 21.08. 19:00 keine Meldung -
Mi, 21.08. 18:55 keine Meldung -
Mi, 21.08. 18:00 keine Meldung -
Mi, 21.08. 17:55 keine Meldung -
Mi, 21.08. 17:00 keine Meldung -
Mi, 21.08. 16:55 keine Meldung -
Mi, 21.08. 16:00 keine Meldung -
Mi, 21.08. 15:55 keine Meldung -
Mi, 21.08. 15:00 keine Meldung -
Ortszeit Stärke Spitze Richtung
km/h Bft. km/h Grad Sektor
Mi, 21.08. 14:00 9 2 - 210° SW
Mi, 21.08. 8:00 9 2 - 200° S
Mi, 21.08. 2:00 17 3 - 220° SW
Di, 20.08. 20:00 22 4 - 180° S
Di, 20.08. 14:00 11 2 - 170° S
Di, 20.08. 8:00 15 3 - 300° NW
Di, 20.08. 2:00 9 2 - 270° W
Mo, 19.08. 20:00 11 2 - 190° S
Ortszeit Stärke Spitze Richtung
km/h Bft. km/h Grad Sektor
Mi, 21.08. 19:00 20 4 - 190° S
Mi, 21.08. 18:55 20 4 - 190° S
Mi, 21.08. 18:00 19 3 - 190° S
Mi, 21.08. 17:55 19 3 - 190° S
Mi, 21.08. 17:00 13 3 - 190° S
Mi, 21.08. 16:55 13 3 - 190° S
Mi, 21.08. 16:00 15 3 - 200° S
Mi, 21.08. 15:55 15 3 - 200° S
Mi, 21.08. 15:00 13 3 - 200° S
Ortszeit Untergrenze Bedeckung Gattung
total tief tief mittel hoch
Mi, 21.08. 14:00 1200 m 1/8 1/8 Cu - -
Mi, 21.08. 8:00 - 0/8 0/8 - - -
Mi, 21.08. 2:00 - 0/8 0/8 - - -
Di, 20.08. 20:00 - 0/8 0/8 - - -
Di, 20.08. 14:00 - 0/8 0/8 - - -
Di, 20.08. 8:00 - 0/8 0/8 - - -
Di, 20.08. 2:00 - 0/8 0/8 - - -
Mo, 19.08. 20:00 - 0/8 0/8 - - -
Ortszeit Bedeckungsgrad in Achtel und Wolkenuntergrenze
Mi, 21.08. 19:00 1(1200m)
Mi, 21.08. 18:55 1-2(1200m)
Mi, 21.08. 18:00 1(1200m)
Mi, 21.08. 17:55 1-2(1200m)
Mi, 21.08. 17:00 1(1200m)
Mi, 21.08. 16:55 1-2(1200m)
Mi, 21.08. 16:00 1(1200m)
Mi, 21.08. 15:55 1-2(1200m)
Mi, 21.08. 15:00 1(1200m)
Ortszeit Luftdruck NN (hPa) Tendenz (hPa in 3 Std.)
Mi, 21.08. 14:00 1017 0,0
Mi, 21.08. 8:00 1016 0,0
Mi, 21.08. 2:00 1016 0,0
Di, 20.08. 20:00 1016 0,0
Di, 20.08. 14:00 1017 0,0
Di, 20.08. 8:00 1017 0,0
Di, 20.08. 2:00 1017 + 0,1
Mo, 19.08. 20:00 1016 0,0
Ortszeit Luftdruck NN (hPa) Tendenz (hPa in 3 Std.)
Mi, 21.08. 19:00 1016 - 0,3
Mi, 21.08. 18:55 1016 keine Meldung
Mi, 21.08. 18:00 1016 - 0,6
Mi, 21.08. 17:55 1016 keine Meldung
Mi, 21.08. 17:00 1016 - 1,0
Mi, 21.08. 16:55 1016 keine Meldung
Mi, 21.08. 16:00 1016 - 0,7
Mi, 21.08. 15:55 1017 keine Meldung
Mi, 21.08. 15:00 1016 - 0,5
Ortszeit Schneehöhe (cm)
Mi, 21.08. 14:00 -
Mi, 21.08. 8:00 0
Mi, 21.08. 2:00 -
Di, 20.08. 20:00 -
Di, 20.08. 14:00 -
Di, 20.08. 8:00 0
Di, 20.08. 2:00 -
Mo, 19.08. 20:00 -
Ortszeit Schneehöhe (cm)
Mi, 21.08. 19:00 -
Mi, 21.08. 18:55 -
Mi, 21.08. 18:00 -
Mi, 21.08. 17:55 -
Mi, 21.08. 17:00 -
Mi, 21.08. 16:55 -
Mi, 21.08. 16:00 -
Mi, 21.08. 15:55 -
Mi, 21.08. 15:00 -
Link zu dieser Seite / Seite empfehlen

Das Wetter in ...